首页
METAR-TAF:

METAR-TAF

机场 :

Bobby L. Chain Municipal Airport

哈蒂斯堡, 密西西比州, 美国

纬度: 31-15-54N, 经度: 089-15-11W, 海拔: 46米

当前天气观测

该预报发布于20分钟前的11:11 UTC
风速8节,风向北转东北
温度 5°C
湿度 87%
气压 1029 hPa
能見度: 16.1公里
散云层高于1300英尺

METAR: KHBG 111111Z AUTO 02008KT 10SM SCT013 05/03 A3039 RMK AO2 T00500028 $

时间: 05:31 (11:31 UTC)

预报

该预报发布于6小时和7分钟前的05:24 UTC
预报有效从11日的 06点(UTC)到 12日的 06点(UTC)
风速10节,风向北转东北
能見度: 8.0公里
阴天层高于800英尺
小雨, 轻雾
从 11日的 1200点(UTC)
风速9节,风向北转东北
能見度: 10公里
多云层高于1500英尺
从 11日的 1400点(UTC)
风速10节,风向北转东北,有时为18节阵风
能見度: 10公里
散云层高于25000英尺

TAF: KHBG 110524Z 1106/1206 03010KT 5SM -RA BR OVC008 FM111200 02009KT P6SM BKN015 FM111400 02010G18KT P6SM SCT250

超过4000个机场的气象观测和天气预报(METAR&TAF报告)。

可查询的气象台以黄色和红色小点在地图上表示。

将鼠标移到小点上方,可查看气象台名称。

然后点击查看天气观测和预报。

如需切换地图:点击带黑十字的绿色按钮放大地图;点击带横线的绿色按钮缩小地图;或者点击绿色箭头查看邻近地区的地图。


METAR-TAF: